Time;durP1;ratioP1;P1;durP2;ratioP2;P2;SDS_P1;SDS_P2;PMS_P1;PMS_P2;Temp;Humidity;BMP_temperature;BMP_pressure;BME280_temperature;BME280_humidity;BME280_pressure;Samples;Min_cycle;Max_cycle;Signal;HPM_P1;HPM_P2
2022/06/24 00:02:12;;;;;;;35.25;15.65;;;19.50;99.90;;;;;;5015736;28;20076;-47
2022/06/24 00:04:38;;;;;;;23.20;12.05;;;19.50;99.90;;;;;;4998231;28;20120;-51
2022/06/24 00:07:14;;;;;;;39.75;18.70;;;19.80;99.90;;;;;;4998212;28;20022;-50
2022/06/24 00:09:41;;;;;;;22.92;14.32;;;20.20;99.90;;;;;;4997989;28;20026;-47
2022/06/24 00:12:10;;;;;;;24.35;14.65;;;20.20;99.90;;;;;;5015542;28;20029;-48
2022/06/24 00:14:37;;;;;;;28.27;14.55;;;20.20;99.90;;;;;;5015496;28;20022;-47
2022/06/24 00:17:05;;;;;;;27.73;14.77;;;20.20;99.90;;;;;;5015797;28;20022;-47
2022/06/24 00:19:35;;;;;;;25.30;13.75;;;20.20;99.90;;;;;;5014080;28;20109;-49
2022/06/24 00:22:07;;;;;;;22.52;12.55;;;20.20;99.90;;;;;;4998041;28;20026;-47
2022/06/24 00:24:35;;;;;;;24.05;12.20;;;20.20;99.90;;;;;;5015313;28;20021;-49
2022/06/24 00:27:02;;;;;;;22.17;12.45;;;20.20;99.90;;;;;;5013844;28;20030;-50
2022/06/24 00:29:30;;;;;;;17.88;11.20;;;20.30;99.90;;;;;;5015028;28;20018;-51
2022/06/24 00:32:08;;;;;;;18.30;10.18;;;20.30;99.90;;;;;;4997418;28;20097;-49
2022/06/24 00:34:35;;;;;;;17.88;10.40;;;20.20;99.90;;;;;;4997967;28;20026;-47
2022/06/24 00:37:29;;;;;;;29.67;14.90;;;20.10;99.90;;;;;;5014958;28;20053;-47
2022/06/24 00:40:00;;;;;;;27.17;14.75;;;20.10;99.90;;;;;;5014868;28;20026;-47
2022/06/24 00:42:26;;;;;;;22.43;12.20;;;20.00;99.90;;;;;;5014955;28;20033;-47
2022/06/24 00:45:02;;;;;;;17.77;11.80;;;20.00;99.90;;;;;;4997298;28;20100;-47
2022/06/24 00:47:28;;;;;;;14.55;10.73;;;19.90;99.90;;;;;;4997210;28;20461;-52
2022/06/24 00:49:56;;;;;;;21.15;11.32;;;19.80;99.90;;;;;;4997357;28;20026;-48
2022/06/24 00:52:22;;;;;;;20.27;12.20;;;19.90;99.90;;;;;;4997059;28;20026;-51
2022/06/24 00:54:48;;;;;;;15.70;10.40;;;20.00;99.90;;;;;;5014786;28;20033;-49
2022/06/24 00:57:14;;;;;;;22.55;10.80;;;20.00;99.90;;;;;;5013960;28;20025;-47
2022/06/24 00:59:42;;;;;;;21.80;11.43;;;19.90;99.90;;;;;;4997199;28;20025;-47
2022/06/24 01:02:08;;;;;;;25.65;11.20;;;19.90;99.90;;;;;;4997949;28;20066;-47
2022/06/24 01:04:34;;;;;;;12.90;8.07;;;19.80;99.90;;;;;;4997685;28;20093;-47
2022/06/24 01:07:01;;;;;;;14.00;5.47;;;19.80;99.90;;;;;;4997314;28;20018;-47
2022/06/24 01:09:27;;;;;;;16.35;4.50;;;19.60;99.90;;;;;;4997438;28;20026;-50
2022/06/24 01:11:53;;;;;;;16.98;5.45;;;19.50;99.90;;;;;;5014415;28;20033;-50
2022/06/24 01:14:19;;;;;;;13.48;5.78;;;19.50;99.90;;;;;;5014356;28;20380;-49
2022/06/24 01:16:45;;;;;;;9.48;4.63;;;19.50;99.90;;;;;;5014536;28;20028;-48
2022/06/24 01:19:14;;;;;;;12.00;4.38;;;19.50;99.90;;;;;;5014608;28;20037;-49
2022/06/24 01:21:42;;;;;;;10.93;3.10;;;19.50;99.90;;;;;;5014143;28;20087;-47
2022/06/24 01:24:08;;;;;;;10.90;4.03;;;19.20;99.90;;;;;;4997091;28;20061;-47
2022/06/24 01:26:39;;;;;;;10.10;3.85;;;19.10;99.90;;;;;;4996662;28;20038;-49
2022/06/24 01:29:05;;;;;;;8.02;2.50;;;19.00;99.90;;;;;;5014136;28;20057;-50
2022/06/24 01:31:31;;;;;;;9.15;3.47;;;18.80;99.90;;;;;;4996278;28;20060;-51
2022/06/24 01:33:57;;;;;;;8.30;3.63;;;18.90;99.90;;;;;;4996330;28;20057;-46
2022/06/24 01:36:23;;;;;;;10.68;3.55;;;18.90;99.90;;;;;;5013940;28;20025;-51
2022/06/24 01:38:49;;;;;;;9.02;3.45;;;18.90;99.90;;;;;;4996176;28;20037;-47
2022/06/24 01:41:16;;;;;;;7.05;3.70;;;18.90;99.90;;;;;;4996683;28;20416;-48
2022/06/24 01:43:41;;;;;;;14.27;4.25;;;19.00;99.90;;;;;;5014058;28;20095;-47
2022/06/24 01:46:07;;;;;;;10.20;3.28;;;18.90;99.90;;;;;;4996177;28;20494;-51
2022/06/24 01:48:32;;;;;;;11.60;3.28;;;18.80;99.90;;;;;;4996067;28;20032;-49
2022/06/24 01:50:58;;;;;;;8.75;2.97;;;18.90;99.90;;;;;;4995984;28;20041;-47
2022/06/24 01:53:24;;;;;;;8.90;3.60;;;18.90;99.90;;;;;;5013605;28;20022;-48
2022/06/24 01:55:50;;;;;;;5.43;3.10;;;18.90;99.90;;;;;;5013725;28;20097;-47
2022/06/24 01:58:15;;;;;;;12.63;4.43;;;19.00;99.90;;;;;;4996914;28;20376;-49
2022/06/24 02:00:41;;;;;;;10.27;4.13;;;19.00;99.90;;;;;;4996004;28;20388;-47
2022/06/24 02:03:07;;;;;;;6.15;3.13;;;19.10;99.90;;;;;;4996447;28;20030;-47
2022/06/24 02:05:33;;;;;;;11.50;4.00;;;19.10;99.90;;;;;;5013431;28;20021;-49
2022/06/24 02:07:59;;;;;;;12.88;3.53;;;19.20;99.90;;;;;;4996445;28;20041;-47
2022/06/24 02:13:26;;;;;;;9.48;4.05;;;18.90;99.90;;;;;;5013342;28;20029;-49
2022/06/24 02:15:53;;;;;;;8.30;3.03;;;19.00;99.90;;;;;;4995712;28;20022;-47
2022/06/24 02:18:19;;;;;;;16.30;4.15;;;18.90;99.90;;;;;;5013231;28;20017;-47
2022/06/24 02:20:44;;;;;;;7.03;3.30;;;18.90;99.90;;;;;;4995896;28;20465;-48
2022/06/24 02:23:10;;;;;;;8.23;3.28;;;18.90;99.90;;;;;;5013205;28;20072;-47
2022/06/24 02:25:36;;;;;;;14.02;3.70;;;19.00;99.90;;;;;;4996254;28;20204;-47
2022/06/24 02:28:01;;;;;;;10.45;7.22;;;19.10;99.90;;;;;;5013424;28;20030;-46
2022/06/24 02:30:27;;;;;;;14.75;4.32;;;19.20;99.90;;;;;;4996152;28;20527;-46
2022/06/24 02:32:53;;;;;;;9.90;3.80;;;19.10;99.90;;;;;;5013071;28;20489;-47
2022/06/24 02:35:18;;;;;;;8.20;3.63;;;19.20;99.90;;;;;;5013078;28;20068;-48
2022/06/24 02:37:44;;;;;;;11.20;3.47;;;19.20;99.90;;;;;;5013083;28;20022;-47
2022/06/24 02:42:55;;;;;;;10.60;3.10;;;19.00;99.90;;;;;;5013129;28;20080;-47
2022/06/24 02:45:21;;;;;;;8.68;2.70;;;18.90;99.90;;;;;;5013033;28;20362;-48
2022/06/24 02:47:47;;;;;;;6.97;2.70;;;19.20;99.90;;;;;;4995324;28;20061;-50
2022/06/24 02:50:12;;;;;;;9.40;2.80;;;19.20;99.90;;;;;;4995553;28;20061;-48
2022/06/24 02:52:38;;;;;;;9.75;3.45;;;19.20;99.90;;;;;;5012867;28;20473;-47
2022/06/24 02:55:04;;;;;;;6.60;3.03;;;19.20;99.90;;;;;;4995654;28;20025;-47
2022/06/24 02:57:29;;;;;;;10.02;2.67;;;19.20;99.90;;;;;;4995191;28;20022;-46
2022/06/24 02:59:55;;;;;;;9.50;3.03;;;19.30;99.90;;;;;;5013193;28;20064;-47
2022/06/24 03:02:20;;;;;;;6.68;3.08;;;19.30;99.90;;;;;;4995789;28;20080;-48
2022/06/24 03:04:46;;;;;;;11.10;3.25;;;19.40;99.90;;;;;;4995438;28;20030;-46
2022/06/24 03:07:11;;;;;;;10.27;3.60;;;19.40;99.90;;;;;;4995496;28;20079;-48
2022/06/24 03:09:37;;;;;;;15.85;3.83;;;19.50;99.90;;;;;;5012725;28;20022;-47
2022/06/24 03:12:03;;;;;;;12.40;4.28;;;19.50;99.90;;;;;;5012682;28;20093;-46
2022/06/24 03:14:28;;;;;;;14.02;3.80;;;19.60;99.90;;;;;;5013174;28;20449;-47
2022/06/24 03:17:41;;;;;;;11.60;4.57;;;19.60;99.90;;;;;;5012792;28;20026;-47
2022/06/24 03:20:08;;;;;;;7.22;3.38;;;19.60;99.90;;;;;;5013936;28;20100;-47
2022/06/24 03:22:34;;;;;;;13.00;3.97;;;19.60;99.90;;;;;;4998877;28;20057;-48
2022/06/24 03:24:59;;;;;;;11.20;3.90;;;19.60;99.90;;;;;;4999008;28;20026;-48
2022/06/24 03:27:25;;;;;;;7.25;2.85;;;19.50;99.90;;;;;;4999223;28;20117;-47
2022/06/24 03:29:51;;;;;;;7.93;3.35;;;19.40;99.90;;;;;;5016731;28;20157;-47
2022/06/24 03:32:16;;;;;;;10.27;3.00;;;19.50;99.90;;;;;;4999042;28;20033;-48
2022/06/24 03:34:42;;;;;;;11.70;3.58;;;19.40;99.90;;;;;;4998709;28;20025;-46
2022/06/24 03:37:08;;;;;;;13.10;3.40;;;19.50;99.90;;;;;;4998945;28;20022;-47
2022/06/24 03:39:33;;;;;;;8.35;3.60;;;19.40;99.90;;;;;;5015965;28;20022;-47
2022/06/24 03:41:59;;;;;;;19.30;3.67;;;19.40;99.90;;;;;;4998505;28;20030;-48
2022/06/24 03:44:25;;;;;;;13.27;3.67;;;19.40;99.90;;;;;;5016330;28;20030;-46
2022/06/24 03:46:51;;;;;;;6.68;3.70;;;19.40;99.90;;;;;;4998475;28;20388;-46
2022/06/24 03:49:19;;;;;;;8.73;2.95;;;19.30;99.90;;;;;;4999001;28;20030;-46
2022/06/24 03:51:45;;;;;;;10.40;3.42;;;19.30;99.90;;;;;;4998793;28;20140;-47
2022/06/24 03:54:10;;;;;;;7.15;2.92;;;19.20;99.90;;;;;;5015937;28;20026;-46
2022/06/24 03:56:36;;;;;;;9.35;3.13;;;19.20;99.90;;;;;;5016046;28;20026;-46
2022/06/24 03:59:01;;;;;;;8.57;3.00;;;19.30;99.90;;;;;;5015747;28;20056;-46
2022/06/24 04:01:27;;;;;;;6.07;2.17;;;19.40;99.90;;;;;;5016029;28;20076;-49
2022/06/24 04:03:53;;;;;;;7.50;2.50;;;19.30;99.90;;;;;;4998774;28;20026;-47
2022/06/24 04:06:19;;;;;;;7.75;2.53;;;19.40;99.90;;;;;;5016101;28;20050;-45
2022/06/24 04:08:45;;;;;;;6.05;2.95;;;19.40;99.90;;;;;;4998258;28;20064;-46
2022/06/24 04:11:12;;;;;;;10.77;3.03;;;19.40;99.90;;;;;;5015492;28;20090;-46
2022/06/24 04:13:38;;;;;;;6.57;2.97;;;19.50;99.90;;;;;;5015903;28;20156;-46
2022/06/24 04:16:04;;;;;;;7.40;2.55;;;19.40;99.90;;;;;;4998679;28;20112;-46
2022/06/24 04:18:30;;;;;;;7.30;3.13;;;19.50;99.90;;;;;;5016010;28;20022;-46
2022/06/24 04:20:56;;;;;;;9.00;2.65;;;19.60;99.90;;;;;;5015526;28;20025;-49
2022/06/24 04:23:21;;;;;;;7.93;2.45;;;19.50;99.90;;;;;;5015519;28;20029;-46
2022/06/24 04:25:48;;;;;;;9.50;2.60;;;19.50;99.90;;;;;;5015630;28;20034;-49
2022/06/24 04:28:13;;;;;;;7.68;2.05;;;19.40;99.90;;;;;;5015542;28;20021;-45
2022/06/24 04:30:39;;;;;;;9.95;1.85;;;19.50;99.90;;;;;;4997599;28;20033;-47
2022/06/24 04:33:05;;;;;;;4.55;1.75;;;19.60;99.90;;;;;;4997076;28;20029;-46
2022/06/24 04:35:31;;;;;;;7.00;1.88;;;19.60;99.90;;;;;;5015703;28;20041;-48
2022/06/24 04:37:56;;;;;;;4.25;1.67;;;19.50;99.90;;;;;;5015881;28;20026;-48
2022/06/24 04:40:22;;;;;;;8.27;1.60;;;19.50;99.90;;;;;;4997857;28;20117;-46
2022/06/24 04:42:48;;;;;;;8.70;1.90;;;19.60;99.90;;;;;;4998300;28;20036;-48
2022/06/24 04:45:13;;;;;;;8.13;2.05;;;19.60;99.90;;;;;;4998113;28;20026;-46
2022/06/24 04:47:39;;;;;;;3.10;1.67;;;19.60;99.90;;;;;;5015416;28;20060;-47
2022/06/24 04:50:06;;;;;;;6.55;2.10;;;19.60;99.90;;;;;;5015275;28;20080;-48
2022/06/24 04:52:32;;;;;;;6.25;1.63;;;19.60;99.90;;;;;;4998000;28;20030;-50
2022/06/24 04:54:59;;;;;;;6.97;1.67;;;19.50;99.90;;;;;;5015357;28;20022;-51
2022/06/24 04:57:25;;;;;;;4.03;1.30;;;19.60;99.90;;;;;;4998526;28;20018;-49
2022/06/24 04:59:50;;;;;;;5.78;1.50;;;19.60;99.90;;;;;;4997702;28;20044;-46
2022/06/24 05:02:16;;;;;;;6.20;2.28;;;19.50;99.90;;;;;;4997677;28;20485;-47
2022/06/24 05:04:42;;;;;;;4.05;1.77;;;19.60;99.90;;;;;;5015389;28;20102;-48
2022/06/24 05:07:07;;;;;;;6.50;1.90;;;19.60;99.90;;;;;;5015299;28;20030;-50
2022/06/24 05:09:33;;;;;;;4.05;1.55;;;19.70;99.90;;;;;;4997546;28;20026;-47
2022/06/24 05:11:59;;;;;;;6.40;1.70;;;19.80;99.90;;;;;;4997624;28;20030;-49
2022/06/24 05:14:25;;;;;;;6.20;1.77;;;19.80;99.90;;;;;;5014952;28;20032;-46
2022/06/24 05:16:50;;;;;;;5.80;2.00;;;19.90;99.90;;;;;;5015100;28;20022;-49
2022/06/24 05:19:16;;;;;;;4.07;1.35;;;19.90;99.90;;;;;;4997508;28;20021;-47
2022/06/24 05:21:42;;;;;;;5.68;1.67;;;20.10;99.90;;;;;;4997741;28;20473;-48
2022/06/24 05:24:08;;;;;;;12.15;2.88;;;20.30;99.90;;;;;;4997531;28;20479;-48
2022/06/24 05:26:34;;;;;;;4.20;1.70;;;20.30;99.90;;;;;;5014917;28;20041;-47
2022/06/24 05:28:59;;;;;;;4.15;1.90;;;20.50;99.90;;;;;;4997476;28;20030;-47
2022/06/24 05:31:25;;;;;;;4.28;2.00;;;20.60;99.90;;;;;;4997089;28;20053;-47
2022/06/24 05:33:51;;;;;;;4.25;1.40;;;20.80;99.90;;;;;;4997044;28;20018;-49
2022/06/24 05:36:16;;;;;;;4.28;1.50;;;20.80;99.90;;;;;;4997283;28;20029;-50
2022/06/24 05:38:44;;;;;;;4.80;2.13;;;20.70;99.90;;;;;;5014436;28;20017;-51
2022/06/24 05:41:09;;;;;;;9.13;2.30;;;20.50;99.90;;;;;;5015086;28;20104;-47
2022/06/24 05:43:35;;;;;;;3.88;1.80;;;20.40;99.90;;;;;;4996885;28;20065;-48
2022/06/24 05:46:00;;;;;;;5.65;1.92;;;20.40;99.90;;;;;;4996949;28;20117;-52
2022/06/24 05:48:27;;;;;;;4.60;1.95;;;20.50;99.90;;;;;;5014667;28;20029;-50
2022/06/24 05:50:53;;;;;;;3.75;1.52;;;20.50;99.90;;;;;;4996767;28;20132;-52
2022/06/24 05:56:03;;;;;;;3.53;1.75;;;20.70;99.90;;;;;;5014712;28;20092;-49
2022/06/24 05:58:30;;;;;;;6.57;2.75;;;20.80;99.90;;;;;;5014603;28;20540;-47
2022/06/24 06:00:56;;;;;;;7.20;1.90;;;20.90;99.90;;;;;;4996653;28;20022;-52
2022/06/24 06:03:22;;;;;;;2.70;2.00;;;20.90;99.90;;;;;;4997163;28;20168;-49
2022/06/24 06:05:48;;;;;;;7.50;2.40;;;20.80;99.90;;;;;;4996812;28;20045;-49
2022/06/24 06:08:15;;;;;;;8.25;3.13;;;20.50;99.90;;;;;;5014053;28;20030;-49
2022/06/24 06:10:43;;;;;;;10.15;2.58;;;20.60;99.90;;;;;;5013773;28;20026;-49
2022/06/24 06:13:12;;;;;;;3.47;2.30;;;20.70;99.90;;;;;;5013942;28;20456;-53
2022/06/24 06:15:40;;;;;;;8.13;3.00;;;20.60;99.90;;;;;;4996583;28;20032;-52
2022/06/24 06:18:06;;;;;;;3.53;2.05;;;20.70;99.90;;;;;;5013999;28;20052;-54
2022/06/24 06:20:32;;;;;;;8.63;2.53;;;20.80;99.90;;;;;;5013800;28;20025;-50
2022/06/24 06:22:58;;;;;;;3.17;1.95;;;20.90;99.90;;;;;;4997063;28;20033;-51
2022/06/24 06:25:24;;;;;;;8.35;2.60;;;21.10;99.90;;;;;;5013813;28;20026;-51
2022/06/24 06:27:50;;;;;;;6.22;2.50;;;21.10;99.90;;;;;;4995975;28;20037;-50
2022/06/24 06:30:16;;;;;;;5.25;2.70;;;21.20;99.90;;;;;;4996325;28;20028;-50
2022/06/24 06:32:42;;;;;;;5.28;2.25;;;21.40;99.90;;;;;;4996745;28;20022;-46
2022/06/24 06:35:08;;;;;;;7.47;2.90;;;21.70;99.90;;;;;;4996189;28;20022;-51
2022/06/24 06:37:33;;;;;;;4.28;2.25;;;21.80;99.90;;;;;;4996151;28;20033;-49
2022/06/24 06:39:59;;;;;;;7.53;2.85;;;21.80;99.90;;;;;;4996374;28;20022;-49
2022/06/24 06:42:25;;;;;;;5.00;2.42;;;21.80;99.90;;;;;;4995944;28;20445;-49
2022/06/24 06:44:51;;;;;;;8.27;3.25;;;21.80;99.90;;;;;;4996108;28;20025;-48
2022/06/24 06:47:16;;;;;;;5.25;2.78;;;21.90;99.90;;;;;;4996075;28;20022;-48
2022/06/24 06:49:42;;;;;;;6.65;3.30;;;21.90;99.90;;;;;;5013732;28;20049;-46
2022/06/24 06:52:08;;;;;;;7.88;3.53;;;21.90;99.90;;;;;;5013942;28;20036;-47
2022/06/24 06:54:34;;;;;;;9.30;3.40;;;21.90;99.90;;;;;;5013737;28;20032;-51
2022/06/24 06:56:59;;;;;;;11.15;4.10;;;21.70;99.90;;;;;;5000016;28;20040;-51
2022/06/24 06:59:25;;;;;;;7.00;4.15;;;21.70;99.90;;;;;;5017476;28;20473;-50
2022/06/24 07:01:51;;;;;;;7.45;3.78;;;21.50;99.90;;;;;;5017460;28;20495;-48
2022/06/24 07:04:16;;;;;;;10.30;3.75;;;21.40;99.90;;;;;;5000166;28;20125;-46
2022/06/24 07:06:42;;;;;;;5.18;2.88;;;21.60;99.90;;;;;;5017436;28;20034;-47
2022/06/24 07:09:08;;;;;;;8.25;4.03;;;21.80;99.90;;;;;;5000072;28;20072;-49
2022/06/24 07:11:34;;;;;;;6.22;3.17;;;21.90;99.90;;;;;;4999913;28;20030;-49
2022/06/24 07:14:00;;;;;;;9.07;4.00;;;22.40;99.90;;;;;;4999872;28;20503;-47
2022/06/24 07:16:26;;;;;;;8.18;4.05;;;22.90;99.90;;;;;;5000373;28;20105;-51
2022/06/24 07:18:51;;;;;;;8.18;3.83;;;22.90;99.90;;;;;;5000001;28;20026;-47
2022/06/24 07:21:17;;;;;;;6.03;4.07;;;23.10;99.90;;;;;;5017063;28;20407;-48
2022/06/24 07:23:43;;;;;;;6.75;4.70;;;23.50;99.90;;;;;;4999866;28;20026;-50
2022/06/24 07:26:09;;;;;;;7.53;4.47;;;23.60;99.90;;;;;;4999638;28;20033;-49
2022/06/24 07:28:35;;;;;;;7.47;4.60;;;23.60;99.90;;;;;;5017309;28;20030;-47
2022/06/24 07:31:01;;;;;;;8.40;4.60;;;23.30;99.90;;;;;;4999381;28;20025;-49
2022/06/24 07:33:26;;;;;;;7.75;5.30;;;22.80;99.90;;;;;;4999340;28;20053;-52
2022/06/24 07:35:52;;;;;;;11.65;5.68;;;22.70;99.90;;;;;;4999563;28;20467;-49
2022/06/24 07:38:18;;;;;;;6.63;4.10;;;22.70;99.90;;;;;;5016852;28;20093;-51
2022/06/24 07:40:44;;;;;;;7.90;3.55;;;22.90;99.90;;;;;;5016775;28;20108;-50
2022/06/24 07:43:10;;;;;;;5.30;3.35;;;23.30;99.90;;;;;;4999232;28;20060;-51
2022/06/24 07:45:35;;;;;;;13.52;4.18;;;24.00;99.90;;;;;;5016880;28;20022;-49
2022/06/24 07:48:01;;;;;;;8.02;4.15;;;23.80;99.90;;;;;;4999726;28;20038;-52
2022/06/24 07:50:27;;;;;;;7.28;3.47;;;24.40;99.90;;;;;;4998915;28;20030;-50
2022/06/24 07:52:53;;;;;;;6.30;2.80;;;24.70;99.90;;;;;;5016876;28;20014;-52
2022/06/24 07:58:03;;;;;;;7.47;2.92;;;26.50;99.90;;;;;;5016765;28;20080;-47
2022/06/24 08:00:28;;;;;;;5.45;3.40;;;27.80;99.90;;;;;;4999257;28;20030;-46
2022/06/24 08:02:54;;;;;;;6.85;3.13;;;27.50;99.90;;;;;;5016513;28;20033;-46
2022/06/24 08:05:20;;;;;;;3.75;2.53;;;27.00;99.90;;;;;;5016758;28;20030;-47
2022/06/24 08:07:47;;;;;;;4.97;2.97;;;26.60;99.90;;;;;;4998568;28;20034;-48
2022/06/24 08:10:13;;;;;;;5.00;2.85;;;26.50;99.90;;;;;;5016363;28;20030;-47
2022/06/24 08:12:39;;;;;;;5.30;2.50;;;25.80;99.90;;;;;;4999469;28;20026;-49
2022/06/24 08:15:05;;;;;;;4.35;2.58;;;25.30;99.90;;;;;;4998633;28;20032;-48
2022/06/24 08:17:30;;;;;;;5.10;2.55;;;26.40;99.90;;;;;;5016185;28;20104;-46
2022/06/24 08:19:57;;;;;;;4.90;2.75;;;26.70;99.90;;;;;;4998673;28;20161;-46
2022/06/24 08:22:22;;;;;;;5.97;3.17;;;26.60;99.90;;;;;;5016088;28;20113;-47
2022/06/24 08:24:48;;;;;;;5.40;2.90;;;27.70;99.90;;;;;;4998661;28;20062;-46
2022/06/24 08:27:14;;;;;;;7.90;2.63;;;28.30;99.90;;;;;;4998880;28;20384;-46
2022/06/24 08:29:39;;;;;;;6.25;2.05;;;29.10;99.90;;;;;;4998890;28;20033;-46
2022/06/24 08:32:05;;;;;;;6.22;2.67;;;29.60;99.90;;;;;;4998616;28;20065;-48
2022/06/24 08:34:31;;;;;;;4.68;2.03;;;29.60;99.90;;;;;;4998660;28;20073;-49
2022/06/24 08:36:56;;;;;;;4.22;2.15;;;29.40;99.90;;;;;;4998839;28;20120;-51
2022/06/24 08:39:22;;;;;;;6.18;2.08;;;29.20;99.90;;;;;;4999082;28;20022;-53
2022/06/24 08:41:54;;;;;;;3.25;1.92;;;29.20;99.90;;;;;;4998194;28;20029;-54
2022/06/24 08:44:20;;;;;;;12.02;2.40;;;29.10;99.90;;;;;;5016046;28;20022;-54
2022/06/24 08:46:46;;;;;;;6.13;2.13;;;28.60;99.90;;;;;;4998051;28;20030;-52
2022/06/24 08:49:12;;;;;;;3.17;1.90;;;28.30;99.90;;;;;;4999013;28;20022;-54
2022/06/24 08:51:40;;;;;;;6.20;2.13;;;28.10;99.90;;;;;;5015344;28;20552;-50
2022/06/24 08:54:09;;;;;;;4.60;1.90;;;28.00;99.90;;;;;;4998113;28;20022;-53
2022/06/24 08:56:35;;;;;;;3.45;2.35;;;27.10;99.90;;;;;;4998720;28;20073;-52
2022/06/24 08:59:01;;;;;;;5.88;1.88;;;26.60;99.90;;;;;;5015378;28;20018;-54
2022/06/24 09:01:26;;;;;;;4.97;2.10;;;26.80;99.90;;;;;;5015329;28;20022;-51
2022/06/24 09:03:52;;;;;;;5.10;2.00;;;26.90;99.90;;;;;;5015355;28;20029;-53
2022/06/24 09:06:18;;;;;;;3.45;2.10;;;26.80;99.90;;;;;;4998616;28;20033;-53
2022/06/24 09:08:53;;;;;;;5.32;1.80;;;26.80;99.90;;;;;;4997591;28;20026;-53
2022/06/24 09:11:19;;;;;;;5.13;1.90;;;26.60;99.90;;;;;;4997344;28;20080;-57
2022/06/24 09:13:55;;;;;;;4.57;2.10;;;26.20;99.90;;;;;;4997772;28;20026;-54
2022/06/24 09:16:24;;;;;;;3.63;1.98;;;26.20;99.90;;;;;;5015880;28;20014;-55
2022/06/24 09:18:52;;;;;;;4.07;2.35;;;26.10;99.90;;;;;;4996824;28;20026;-54
2022/06/24 09:21:27;;;;;;;2.22;1.50;;;25.90;99.90;;;;;;5015182;28;20623;-50
2022/06/24 09:23:55;;;;;;;3.03;2.08;;;25.60;99.90;;;;;;5015369;28;20484;-52
2022/06/24 09:26:34;;;;;;;2.42;1.75;;;25.40;99.90;;;;;;5014725;28;20124;-54
2022/06/24 09:29:04;;;;;;;6.18;1.88;;;25.20;99.90;;;;;;5015153;28;20022;-56
2022/06/24 09:31:31;;;;;;;2.72;1.70;;;25.30;99.90;;;;;;5014676;28;20057;-56
2022/06/24 09:34:06;;;;;;;3.40;1.50;;;25.20;99.90;;;;;;5014768;28;20074;-51
2022/06/24 09:36:34;;;;;;;3.65;1.38;;;25.10;99.90;;;;;;5015105;28;20041;-52
2022/06/24 09:39:03;;;;;;;1.50;1.30;;;25.20;99.90;;;;;;5014609;28;20034;-53
2022/06/24 09:41:30;;;;;;;2.05;1.42;;;25.20;99.90;;;;;;5014609;28;20033;-53
2022/06/24 09:44:02;;;;;;;1.52;1.35;;;25.20;99.90;;;;;;4997390;28;20040;-52
2022/06/24 09:46:29;;;;;;;3.60;1.30;;;25.10;99.90;;;;;;4996879;28;20460;-55
2022/06/24 09:49:24;;;;;;;4.25;1.35;;;25.30;99.90;;;;;;4996843;28;20022;-53
2022/06/24 09:51:50;;;;;;;0.63;0.63;;;25.30;99.90;;;;;;5001390;28;20045;-55
2022/06/24 09:54:16;;;;;;;3.70;1.05;;;25.20;99.90;;;;;;5014868;28;20018;-56
2022/06/24 09:56:44;;;;;;;3.80;1.08;;;24.90;99.90;;;;;;4997489;28;20376;-57
2022/06/24 10:01:59;;;;;;;4.20;1.00;;;24.70;99.90;;;;;;5014657;28;20049;-57
2022/06/24 10:04:26;;;;;;;5.30;1.10;;;24.90;99.90;;;;;;5014131;28;20033;-57
2022/06/24 10:06:56;;;;;;;2.20;1.10;;;24.90;99.90;;;;;;5014021;28;20033;-55
2022/06/24 10:09:29;;;;;;;2.83;1.58;;;24.90;99.90;;;;;;5014048;28;20030;-57
2022/06/24 10:11:57;;;;;;;1.85;1.30;;;24.90;99.90;;;;;;4996528;28;20026;-53
2022/06/24 10:14:25;;;;;;;1.52;0.85;;;24.90;99.90;;;;;;5013998;28;20022;-57
2022/06/24 10:16:51;;;;;;;2.22;0.73;;;24.90;99.90;;;;;;4996645;28;20104;-54
2022/06/24 10:19:18;;;;;;;2.80;1.02;;;25.20;99.90;;;;;;4996713;28;20021;-55
2022/06/24 10:21:46;;;;;;;1.35;0.80;;;25.50;99.90;;;;;;5013953;28;20029;-55
2022/06/24 10:24:14;;;;;;;7.18;1.50;;;25.70;99.90;;;;;;5014579;28;20101;-54
2022/06/24 10:26:45;;;;;;;1.73;0.88;;;26.20;99.90;;;;;;5014208;28;20034;-51
2022/06/24 10:29:13;;;;;;;1.38;0.90;;;26.70;99.90;;;;;;5013437;28;20536;-51
2022/06/24 10:31:42;;;;;;;1.73;0.85;;;27.20;99.90;;;;;;5013210;28;20030;-49
2022/06/24 10:34:08;;;;;;;3.25;0.70;;;27.60;99.90;;;;;;5013698;28;20036;-48
2022/06/24 10:36:34;;;;;;;3.75;0.95;;;28.10;99.90;;;;;;4995934;28;20119;-51
2022/06/24 10:39:15;;;;;;;2.85;1.05;;;28.30;99.90;;;;;;5013668;28;20441;-51
2022/06/24 10:41:41;;;;;;;1.40;1.02;;;28.20;99.90;;;;;;4995984;28;20029;-52
2022/06/24 10:44:25;;;;;;;3.63;0.80;;;28.10;99.90;;;;;;4996339;28;20059;-54
2022/06/24 10:47:08;;;;;;;0.90;0.70;;;27.80;99.90;;;;;;4996222;28;20089;-50
2022/06/24 10:49:55;;;;;;;5.35;1.20;;;27.50;99.90;;;;;;4996315;28;20053;-51
2022/06/24 10:52:37;;;;;;;3.13;1.10;;;27.30;99.90;;;;;;4996184;28;20052;-54
2022/06/24 10:55:17;;;;;;;1.75;1.00;;;27.10;99.90;;;;;;5013827;28;20022;-52
2022/06/24 10:57:54;;;;;;;5.03;1.20;;;26.50;99.90;;;;;;4996488;28;20041;-49
2022/06/24 11:00:26;;;;;;;3.33;0.82;;;26.50;99.90;;;;;;4995716;28;20036;-50
2022/06/24 11:02:56;;;;;;;4.80;1.00;;;26.60;99.90;;;;;;4995851;28;20022;-50
2022/06/24 11:05:29;;;;;;;2.03;1.05;;;26.70;99.90;;;;;;4996655;28;20420;-49
2022/06/24 11:07:55;;;;;;;1.48;0.90;;;26.70;99.90;;;;;;5013672;28;20108;-53
2022/06/24 11:10:23;;;;;;;3.45;1.15;;;26.50;99.90;;;;;;4995851;28;20113;-55
2022/06/24 11:12:54;;;;;;;2.75;0.93;;;26.30;99.90;;;;;;4996489;28;20025;-56
2022/06/24 11:15:34;;;;;;;1.08;0.98;;;26.10;99.90;;;;;;4995678;28;20022;-51
2022/06/24 11:18:14;;;;;;;1.90;1.02;;;25.80;99.90;;;;;;4995718;28;20029;-53
2022/06/24 11:20:49;;;;;;;1.25;1.00;;;25.60;99.90;;;;;;4995857;28;20431;-53
2022/06/24 11:23:20;;;;;;;2.03;1.10;;;25.40;99.90;;;;;;4995700;28;20065;-56
2022/06/24 11:25:47;;;;;;;;;;;25.30;99.90;;;;;;4995886;28;20025;-56
2022/06/24 11:28:22;;;;;;;2.03;1.33;;;25.30;99.90;;;;;;5013278;28;19901;-53
2022/06/24 11:30:50;;;;;;;3.53;1.25;;;25.50;99.90;;;;;;4996174;28;20022;-54
2022/06/24 11:33:16;;;;;;;1.40;0.90;;;25.80;99.90;;;;;;5013428;28;20022;-51
2022/06/24 11:35:42;;;;;;;2.00;0.95;;;26.10;99.90;;;;;;5013427;28;20022;-51
2022/06/24 11:38:09;;;;;;;4.68;1.40;;;26.40;99.90;;;;;;5013076;28;20180;-48
2022/06/24 11:40:36;;;;;;;10.15;1.88;;;26.70;99.90;;;;;;4995597;28;20022;-50
2022/06/24 11:43:07;;;;;;;4.68;1.30;;;26.70;99.90;;;;;;5016795;28;20054;-53
2022/06/24 11:45:47;;;;;;;3.13;1.05;;;26.70;99.90;;;;;;4999081;28;20053;-48
2022/06/24 11:48:20;;;;;;;4.55;1.23;;;26.50;99.90;;;;;;4999528;28;20030;-47
2022/06/24 11:50:46;;;;;;;2.67;1.10;;;26.10;99.90;;;;;;4999037;28;20026;-49
2022/06/24 11:53:12;;;;;;;3.10;1.20;;;25.80;99.90;;;;;;4999313;28;20033;-48
2022/06/24 11:55:40;;;;;;;2.20;1.02;;;25.50;99.90;;;;;;4998885;28;20065;-50
2022/06/24 11:58:07;;;;;;;6.00;1.00;;;25.40;99.90;;;;;;5016562;28;20057;-53
2022/06/24 12:00:38;;;;;;;3.78;1.15;;;25.30;99.90;;;;;;4998822;28;20113;-51
2022/06/24 12:03:07;;;;;;;3.35;1.00;;;25.20;99.90;;;;;;5016398;28;20416;-51
2022/06/24 12:05:33;;;;;;;1.13;0.82;;;25.20;99.90;;;;;;4998975;28;20030;-57
2022/06/24 12:08:00;;;;;;;1.27;0.60;;;25.50;99.90;;;;;;4999652;28;20034;-48
2022/06/24 12:10:26;;;;;;;4.95;0.70;;;25.80;99.90;;;;;;5016089;28;20101;-48
2022/06/24 12:13:08;;;;;;;3.33;0.60;;;26.00;99.90;;;;;;4998571;28;20114;-47
2022/06/24 12:15:36;;;;;;;2.28;0.55;;;26.30;99.90;;;;;;5016068;28;20017;-50
2022/06/24 12:18:12;;;;;;;3.28;0.90;;;26.40;99.90;;;;;;4998528;28;20029;-54
2022/06/24 12:20:37;;;;;;;0.52;0.52;;;26.40;99.90;;;;;;5015997;28;20030;-53
2022/06/24 12:23:16;;;;;;;2.08;0.65;;;26.60;99.90;;;;;;4998426;28;20022;-50
2022/06/24 12:25:43;;;;;;;1.13;0.70;;;26.70;99.90;;;;;;4998152;28;20022;-50
2022/06/24 12:28:21;;;;;;;1.08;0.77;;;26.80;99.90;;;;;;5016196;28;20034;-47
2022/06/24 12:31:04;;;;;;;2.05;0.60;;;26.70;99.90;;;;;;5015673;28;20025;-50
2022/06/24 12:33:33;;;;;;;1.80;0.70;;;26.70;99.90;;;;;;5015748;28;20101;-46
2022/06/24 12:36:11;;;;;;;0.77;0.60;;;26.50;99.90;;;;;;4998948;28;20018;-45
2022/06/24 12:38:39;;;;;;;0.40;0.40;;;26.40;99.90;;;;;;4998942;28;20054;-49
2022/06/24 12:41:17;;;;;;;2.20;0.77;;;26.40;99.90;;;;;;4998273;28;20052;-50
2022/06/24 12:43:52;;;;;;;2.40;1.02;;;26.30;99.90;;;;;;4997904;28;20076;-49
2022/06/24 12:46:19;;;;;;;1.50;0.70;;;26.30;99.90;;;;;;4997986;28;20041;-49
2022/06/24 12:51:29;;;;;;;0.80;0.80;;;26.30;99.90;;;;;;5015607;28;20045;-49
2022/06/24 12:53:54;;;;;;;0.80;0.80;;;26.40;99.90;;;;;;4996782;28;20022;-51
2022/06/24 12:56:21;;;;;;;1.20;0.75;;;26.40;99.90;;;;;;5015355;28;20084;-49
2022/06/24 12:58:50;;;;;;;0.60;0.60;;;26.40;99.90;;;;;;4998041;28;20033;-48
2022/06/24 13:01:16;;;;;;;1.65;0.80;;;26.60;99.90;;;;;;4997972;28;20026;-47
2022/06/24 13:03:41;;;;;;;1.27;0.60;;;26.60;99.90;;;;;;5015345;28;20082;-48